Impacts METAR Board INFO
IDs:

KSEA - Seattle-Tacoma Intl, WA, US

Updated at: 0157 UTC 24 Jan 2018
Potential Impact None Slight Moderate High
Time23/13Z 23/14Z 23/15Z 23/16Z 23/17Z 23/18Z 23/19Z 23/20Z 23/21Z 23/22Z 23/23Z 24/00Z 24/01Z
VIS10 10 10 10 7 6 6 6 4 4 6 3 7
CIG110 75 50 39 31 28 35 39 33 31 34 43 32
CoverOVCOVCOVCOVCOVCOVCOVCOVCOVCOVCOVCOVCOVC
FltCatVFRVFRVFRVFRVFRMVFRVFRVFRMVFRMVFRVFRMVFRVFR
WX-------RA-RA-RA BR-RA BR-RA BRRA BR-RA BR-RA BR-RA BR-RA
WDir110120190210120100110120290110100110120
WSpd7 9 5 4 8 8 8 8 3 5 7 10 10
WGst-- -- -- -- -- -- -- -- -- -- -- -- --
Raw hourly METARs
KSEA 231253Z 11007KT 10SM SCT090 OVC110 06/00 A3008 RMK AO2 SLP194 T00560000
KSEA 231353Z 12009KT 10SM BKN075 OVC100 06/M01 A3003 RMK AO2 SLP179 T00611006
KSEA 231453Z 19005KT 10SM BKN050 OVC070 06/01 A3002 RMK AO2 SLP175 T00560006 56036
KSEA 231553Z 21004KT 10SM -RA BKN039 OVC050 06/02 A3000 RMK AO2 RAB08E27B50 SLP168 P0000 T00560017
KSEA 231653Z 12008KT 7SM -RA BKN031 OVC040 06/02 A2998 RMK AO2 SLP162 P0004 T00610022
KSEA 231753Z 10008KT 6SM -RA BR BKN028 OVC037 06/03 A2997 RMK AO2 SLP157 P0006 60010 T00560033 10061 20050 56018
KSEA 231853Z 11008KT 6SM -RA BR SCT029 OVC035 06/04 A2994 RMK AO2 SLP147 P0007 T00560039
KSEA 231953Z 12008KT 6SM -RA BR FEW030 OVC039 06/04 A2991 RMK AO2 SLP136 P0008 T00610039
KSEA 232053Z 29003KT 4SM RA BR SCT008 OVC033 06/04 A2988 RMK AO2 SLP128 P0007 60022 T00560044 56029
KSEA 232153Z 11005KT 4SM -RA BR BKN031 OVC042 06/04 A2986 RMK AO2 SLP120 P0006 T00610039
KSEA 232253Z 10007KT 6SM -RA BR OVC034 06/04 A2986 RMK AO2 SLP118 P0007 T00610044
KSEA 232353Z 11010KT 3SM -RA BR BKN043 OVC050 07/05 A2982 RMK AO2 SLP107 P0017 60052 T00670050 10067 20056 58020
KSEA 240053Z 12010KT 7SM -RA BKN032 OVC042 07/05 A2980 RMK AO2 SLP099 P0007 T00670050